sensor_id;sensor_type;location;lat;lon;timestamp;pressure;altitude;pressure_sealevel;temperature
35582;BMP180;21687;48.900;9.188;2023-06-14T00:00:17;98002.00;;;12.00
35582;BMP180;21687;48.900;9.188;2023-06-14T00:02:43;98009.00;;;12.10
35582;BMP180;21687;48.900;9.188;2023-06-14T00:05:09;98007.00;;;12.00
35582;BMP180;21687;48.900;9.188;2023-06-14T00:07:41;98015.00;;;12.00
35582;BMP180;21687;48.900;9.188;2023-06-14T00:10:14;98011.00;;;11.90
35582;BMP180;21687;48.900;9.188;2023-06-14T00:12:41;98006.00;;;11.90
35582;BMP180;21687;48.900;9.188;2023-06-14T00:15:08;98010.00;;;11.90
35582;BMP180;21687;48.900;9.188;2023-06-14T00:17:36;98006.00;;;11.80
35582;BMP180;21687;48.900;9.188;2023-06-14T00:20:04;98002.00;;;11.70
35582;BMP180;21687;48.900;9.188;2023-06-14T00:22:34;98011.00;;;11.70
35582;BMP180;21687;48.900;9.188;2023-06-14T00:25:02;98002.00;;;11.70
35582;BMP180;21687;48.900;9.188;2023-06-14T00:27:29;98004.00;;;11.60
35582;BMP180;21687;48.900;9.188;2023-06-14T00:29:55;98000.00;;;11.50
35582;BMP180;21687;48.900;9.188;2023-06-14T00:32:23;98000.00;;;11.50
35582;BMP180;21687;48.900;9.188;2023-06-14T00:34:52;97997.00;;;11.50
35582;BMP180;21687;48.900;9.188;2023-06-14T00:37:18;98000.00;;;11.40
35582;BMP180;21687;48.900;9.188;2023-06-14T00:39:44;97998.00;;;11.40
35582;BMP180;21687;48.900;9.188;2023-06-14T00:42:11;98003.00;;;11.40
35582;BMP180;21687;48.900;9.188;2023-06-14T00:44:37;98005.00;;;11.30
35582;BMP180;21687;48.900;9.188;2023-06-14T00:47:03;98001.00;;;11.30
35582;BMP180;21687;48.900;9.188;2023-06-14T00:49:30;97996.00;;;11.20
35582;BMP180;21687;48.900;9.188;2023-06-14T00:51:57;97998.00;;;11.20
35582;BMP180;21687;48.900;9.188;2023-06-14T00:54:23;98000.00;;;11.20
35582;BMP180;21687;48.900;9.188;2023-06-14T00:56:49;98004.00;;;11.10
35582;BMP180;21687;48.900;9.188;2023-06-14T00:59:16;97993.00;;;11.10
35582;BMP180;21687;48.900;9.188;2023-06-14T01:01:43;97989.00;;;11.10
35582;BMP180;21687;48.900;9.188;2023-06-14T01:04:09;97990.00;;;11.10
35582;BMP180;21687;48.900;9.188;2023-06-14T01:09:51;97988.00;;;11.00
35582;BMP180;21687;48.900;9.188;2023-06-14T01:14:55;97994.00;;;11.00
35582;BMP180;21687;48.900;9.188;2023-06-14T01:17:23;98004.00;;;11.00
35582;BMP180;21687;48.900;9.188;2023-06-14T01:19:51;98002.00;;;10.90
35582;BMP180;21687;48.900;9.188;2023-06-14T01:22:25;98001.00;;;10.90
35582;BMP180;21687;48.900;9.188;2023-06-14T01:24:52;98003.00;;;10.90
35582;BMP180;21687;48.900;9.188;2023-06-14T01:27:25;97996.00;;;11.00
35582;BMP180;21687;48.900;9.188;2023-06-14T01:29:55;98000.00;;;10.90
35582;BMP180;21687;48.900;9.188;2023-06-14T01:32:27;98004.00;;;10.90
35582;BMP180;21687;48.900;9.188;2023-06-14T01:34:54;98001.00;;;10.80
35582;BMP180;21687;48.900;9.188;2023-06-14T01:37:22;98005.00;;;10.70
35582;BMP180;21687;48.900;9.188;2023-06-14T01:39:49;97996.00;;;10.70
35582;BMP180;21687;48.900;9.188;2023-06-14T01:42:16;97979.00;;;10.80
35582;BMP180;21687;48.900;9.188;2023-06-14T01:44:44;97992.00;;;10.80
35582;BMP180;21687;48.900;9.188;2023-06-14T01:47:12;98002.00;;;10.80
35582;BMP180;21687;48.900;9.188;2023-06-14T01:49:39;97999.00;;;10.70
35582;BMP180;21687;48.900;9.188;2023-06-14T01:52:06;97999.00;;;10.60
35582;BMP180;21687;48.900;9.188;2023-06-14T01:54:35;98005.00;;;10.60
35582;BMP180;21687;48.900;9.188;2023-06-14T01:57:04;98004.00;;;10.60
35582;BMP180;21687;48.900;9.188;2023-06-14T01:59:30;98009.00;;;10.60
35582;BMP180;21687;48.900;9.188;2023-06-14T02:01:57;98003.00;;;10.60
35582;BMP180;21687;48.900;9.188;2023-06-14T02:04:23;98006.00;;;10.50
35582;BMP180;21687;48.900;9.188;2023-06-14T02:06:49;98006.00;;;10.50
35582;BMP180;21687;48.900;9.188;2023-06-14T02:09:16;98000.00;;;10.50
35582;BMP180;21687;48.900;9.188;2023-06-14T02:11:43;98000.00;;;10.40
35582;BMP180;21687;48.900;9.188;2023-06-14T02:14:09;98001.00;;;10.40
35582;BMP180;21687;48.900;9.188;2023-06-14T02:16:38;97997.00;;;10.30
35582;BMP180;21687;48.900;9.188;2023-06-14T02:19:05;98002.00;;;10.30
35582;BMP180;21687;48.900;9.188;2023-06-14T02:21:31;98001.00;;;10.30
35582;BMP180;21687;48.900;9.188;2023-06-14T02:23:58;97997.00;;;10.30
35582;BMP180;21687;48.900;9.188;2023-06-14T02:26:24;98002.00;;;10.20
35582;BMP180;21687;48.900;9.188;2023-06-14T02:28:51;98002.00;;;10.20
35582;BMP180;21687;48.900;9.188;2023-06-14T02:31:17;98006.00;;;10.30
35582;BMP180;21687;48.900;9.188;2023-06-14T02:33:44;98004.00;;;10.20
35582;BMP180;21687;48.900;9.188;2023-06-14T02:36:10;98012.00;;;10.20
35582;BMP180;21687;48.900;9.188;2023-06-14T02:38:36;98007.00;;;10.10
35582;BMP180;21687;48.900;9.188;2023-06-14T02:41:03;98007.00;;;10.10
35582;BMP180;21687;48.900;9.188;2023-06-14T02:43:30;97965.00;;;10.10
35582;BMP180;21687;48.900;9.188;2023-06-14T02:45:56;98005.00;;;10.10
35582;BMP180;21687;48.900;9.188;2023-06-14T02:48:22;98006.00;;;10.10
35582;BMP180;21687;48.900;9.188;2023-06-14T02:50:49;98005.00;;;10.10
35582;BMP180;21687;48.900;9.188;2023-06-14T02:53:16;98007.00;;;10.10
35582;BMP180;21687;48.900;9.188;2023-06-14T02:55:43;98003.00;;;10.20
35582;BMP180;21687;48.900;9.188;2023-06-14T02:58:10;98002.00;;;10.10
35582;BMP180;21687;48.900;9.188;2023-06-14T03:00:36;98002.00;;;10.10
35582;BMP180;21687;48.900;9.188;2023-06-14T03:03:04;98004.00;;;10.10
35582;BMP180;21687;48.900;9.188;2023-06-14T03:05:30;98011.00;;;10.00
35582;BMP180;21687;48.900;9.188;2023-06-14T03:07:57;98011.00;;;10.00
35582;BMP180;21687;48.900;9.188;2023-06-14T03:10:23;98007.00;;;9.90
35582;BMP180;21687;48.900;9.188;2023-06-14T03:12:50;98002.00;;;10.00
35582;BMP180;21687;48.900;9.188;2023-06-14T03:15:17;98002.00;;;9.90
35582;BMP180;21687;48.900;9.188;2023-06-14T03:17:44;98012.00;;;10.00
35582;BMP180;21687;48.900;9.188;2023-06-14T03:23:33;98026.00;;;10.00
35582;BMP180;21687;48.900;9.188;2023-06-14T03:25:59;98010.00;;;10.00
35582;BMP180;21687;48.900;9.188;2023-06-14T03:28:25;97995.00;;;10.00
35582;BMP180;21687;48.900;9.188;2023-06-14T03:30:52;98014.00;;;10.00
35582;BMP180;21687;48.900;9.188;2023-06-14T03:33:18;98022.00;;;10.00
35582;BMP180;21687;48.900;9.188;2023-06-14T03:35:45;98029.00;;;10.00
35582;BMP180;21687;48.900;9.188;2023-06-14T03:38:11;98023.00;;;10.00
35582;BMP180;21687;48.900;9.188;2023-06-14T03:40:37;98027.00;;;10.10
35582;BMP180;21687;48.900;9.188;2023-06-14T03:43:04;98026.00;;;10.20
35582;BMP180;21687;48.900;9.188;2023-06-14T03:45:30;98029.00;;;10.40
35582;BMP180;21687;48.900;9.188;2023-06-14T03:47:56;98036.00;;;10.80
35582;BMP180;21687;48.900;9.188;2023-06-14T03:50:23;98037.00;;;11.20
35582;BMP180;21687;48.900;9.188;2023-06-14T03:52:49;98033.00;;;11.60
35582;BMP180;21687;48.900;9.188;2023-06-14T03:55:16;98042.00;;;12.00
35582;BMP180;21687;48.900;9.188;2023-06-14T03:57:43;98044.00;;;12.30
35582;BMP180;21687;48.900;9.188;2023-06-14T04:00:10;98054.00;;;12.70
35582;BMP180;21687;48.900;9.188;2023-06-14T04:02:37;98036.00;;;12.90
35582;BMP180;21687;48.900;9.188;2023-06-14T04:05:04;98047.00;;;13.40
35582;BMP180;21687;48.900;9.188;2023-06-14T04:07:34;98055.00;;;13.90
35582;BMP180;21687;48.900;9.188;2023-06-14T04:10:07;98059.00;;;14.20
35582;BMP180;21687;48.900;9.188;2023-06-14T04:12:34;98053.00;;;14.60
35582;BMP180;21687;48.900;9.188;2023-06-14T04:15:00;98062.00;;;15.00
35582;BMP180;21687;48.900;9.188;2023-06-14T04:17:27;98057.00;;;15.40
35582;BMP180;21687;48.900;9.188;2023-06-14T04:19:53;98057.00;;;15.90
35582;BMP180;21687;48.900;9.188;2023-06-14T04:22:20;98068.00;;;16.30
35582;BMP180;21687;48.900;9.188;2023-06-14T04:24:46;98070.00;;;16.60
35582;BMP180;21687;48.900;9.188;2023-06-14T04:27:12;98076.00;;;16.60
35582;BMP180;21687;48.900;9.188;2023-06-14T04:29:40;98076.00;;;16.60
35582;BMP180;21687;48.900;9.188;2023-06-14T04:32:09;98087.00;;;16.60
35582;BMP180;21687;48.900;9.188;2023-06-14T04:34:36;98070.00;;;16.30
35582;BMP180;21687;48.900;9.188;2023-06-14T04:37:03;98087.00;;;16.80
35582;BMP180;21687;48.900;9.188;2023-06-14T04:39:30;98079.00;;;17.20
35582;BMP180;21687;48.900;9.188;2023-06-14T04:41:56;98090.00;;;17.10
35582;BMP180;21687;48.900;9.188;2023-06-14T04:44:24;98089.00;;;17.40
35582;BMP180;21687;48.900;9.188;2023-06-14T04:46:59;98087.00;;;18.00
35582;BMP180;21687;48.900;9.188;2023-06-14T04:49:25;98090.00;;;18.00
35582;BMP180;21687;48.900;9.188;2023-06-14T04:51:53;98108.00;;;18.40
35582;BMP180;21687;48.900;9.188;2023-06-14T04:54:27;98104.00;;;19.00
35582;BMP180;21687;48.900;9.188;2023-06-14T04:56:57;98109.00;;;19.20
35582;BMP180;21687;48.900;9.188;2023-06-14T04:59:23;98111.00;;;19.20
35582;BMP180;21687;48.900;9.188;2023-06-14T05:01:50;98112.00;;;19.40
35582;BMP180;21687;48.900;9.188;2023-06-14T05:04:18;98126.00;;;19.50
35582;BMP180;21687;48.900;9.188;2023-06-14T05:06:45;98117.00;;;19.60
35582;BMP180;21687;48.900;9.188;2023-06-14T05:09:13;98119.00;;;19.50
35582;BMP180;21687;48.900;9.188;2023-06-14T05:11:39;98118.00;;;19.00
35582;BMP180;21687;48.900;9.188;2023-06-14T05:14:06;98116.00;;;19.20
35582;BMP180;21687;48.900;9.188;2023-06-14T05:16:32;98113.00;;;19.30
35582;BMP180;21687;48.900;9.188;2023-06-14T05:18:59;98121.00;;;19.70
35582;BMP180;21687;48.900;9.188;2023-06-14T05:21:25;98121.00;;;19.40
35582;BMP180;21687;48.900;9.188;2023-06-14T05:23:52;98126.00;;;19.40
35582;BMP180;21687;48.900;9.188;2023-06-14T05:26:18;98124.00;;;18.80
35582;BMP180;21687;48.900;9.188;2023-06-14T05:28:45;98131.00;;;18.90
35582;BMP180;21687;48.900;9.188;2023-06-14T05:31:11;98130.00;;;18.90
35582;BMP180;21687;48.900;9.188;2023-06-14T05:33:37;98129.00;;;19.00
35582;BMP180;21687;48.900;9.188;2023-06-14T05:36:03;98129.00;;;19.60
35582;BMP180;21687;48.900;9.188;2023-06-14T05:38:30;98134.00;;;19.80
35582;BMP180;21687;48.900;9.188;2023-06-14T05:40:56;98130.00;;;19.50
35582;BMP180;21687;48.900;9.188;2023-06-14T05:43:22;98130.00;;;19.50
35582;BMP180;21687;48.900;9.188;2023-06-14T05:45:49;98135.00;;;19.60
35582;BMP180;21687;48.900;9.188;2023-06-14T05:48:15;98141.00;;;19.30
35582;BMP180;21687;48.900;9.188;2023-06-14T05:50:41;98137.00;;;19.50
35582;BMP180;21687;48.900;9.188;2023-06-14T05:53:07;98144.00;;;20.10
35582;BMP180;21687;48.900;9.188;2023-06-14T05:55:34;98141.00;;;19.70
35582;BMP180;21687;48.900;9.188;2023-06-14T05:58:00;98131.00;;;20.20
35582;BMP180;21687;48.900;9.188;2023-06-14T06:00:26;98140.00;;;20.80
35582;BMP180;21687;48.900;9.188;2023-06-14T06:02:53;98140.00;;;20.90
35582;BMP180;21687;48.900;9.188;2023-06-14T06:05:23;98139.00;;;20.80
35582;BMP180;21687;48.900;9.188;2023-06-14T06:07:50;98135.00;;;19.90
35582;BMP180;21687;48.900;9.188;2023-06-14T06:10:17;98137.00;;;20.50
35582;BMP180;21687;48.900;9.188;2023-06-14T06:12:43;98146.00;;;20.70
35582;BMP180;21687;48.900;9.188;2023-06-14T06:15:09;98141.00;;;20.60
35582;BMP180;21687;48.900;9.188;2023-06-14T06:17:39;98144.00;;;21.20
35582;BMP180;21687;48.900;9.188;2023-06-14T06:20:06;98146.00;;;21.20
35582;BMP180;21687;48.900;9.188;2023-06-14T06:22:37;98143.00;;;21.50
35582;BMP180;21687;48.900;9.188;2023-06-14T06:25:04;98152.00;;;21.60
35582;BMP180;21687;48.900;9.188;2023-06-14T06:27:31;98163.00;;;22.10
35582;BMP180;21687;48.900;9.188;2023-06-14T06:29:57;98156.00;;;22.10
35582;BMP180;21687;48.900;9.188;2023-06-14T06:32:23;98161.00;;;21.60
35582;BMP180;21687;48.900;9.188;2023-06-14T06:34:50;98155.00;;;21.80
35582;BMP180;21687;48.900;9.188;2023-06-14T06:37:16;98161.00;;;22.10
35582;BMP180;21687;48.900;9.188;2023-06-14T06:39:42;98166.00;;;22.00
35582;BMP180;21687;48.900;9.188;2023-06-14T06:42:09;98167.00;;;21.70
35582;BMP180;21687;48.900;9.188;2023-06-14T06:44:36;98178.00;;;21.20
35582;BMP180;21687;48.900;9.188;2023-06-14T06:47:03;98174.00;;;21.40
35582;BMP180;21687;48.900;9.188;2023-06-14T06:49:29;98174.00;;;21.60
35582;BMP180;21687;48.900;9.188;2023-06-14T06:52:04;98172.00;;;21.20
35582;BMP180;21687;48.900;9.188;2023-06-14T06:54:31;98180.00;;;21.40
35582;BMP180;21687;48.900;9.188;2023-06-14T06:56:57;98183.00;;;21.20
35582;BMP180;21687;48.900;9.188;2023-06-14T06:59:24;98184.00;;;21.40
35582;BMP180;21687;48.900;9.188;2023-06-14T07:01:51;98179.00;;;21.70
35582;BMP180;21687;48.900;9.188;2023-06-14T07:04:17;98198.00;;;21.30
35582;BMP180;21687;48.900;9.188;2023-06-14T07:06:45;98198.00;;;21.10
35582;BMP180;21687;48.900;9.188;2023-06-14T07:09:13;98194.00;;;21.20
35582;BMP180;21687;48.900;9.188;2023-06-14T07:11:43;98197.00;;;21.30
35582;BMP180;21687;48.900;9.188;2023-06-14T07:14:09;98196.00;;;21.90
35582;BMP180;21687;48.900;9.188;2023-06-14T07:16:36;98194.00;;;22.00
35582;BMP180;21687;48.900;9.188;2023-06-14T07:19:03;98203.00;;;21.40
35582;BMP180;21687;48.900;9.188;2023-06-14T07:21:29;98200.00;;;21.90
35582;BMP180;21687;48.900;9.188;2023-06-14T07:23:56;98211.00;;;21.30
35582;BMP180;21687;48.900;9.188;2023-06-14T07:26:23;98211.00;;;21.90
35582;BMP180;21687;48.900;9.188;2023-06-14T07:28:49;98208.00;;;22.30
35582;BMP180;21687;48.900;9.188;2023-06-14T07:31:16;98209.00;;;22.10
35582;BMP180;21687;48.900;9.188;2023-06-14T07:33:44;98213.00;;;22.20
35582;BMP180;21687;48.900;9.188;2023-06-14T07:36:11;98216.00;;;22.30
35582;BMP180;21687;48.900;9.188;2023-06-14T07:38:37;98219.00;;;22.70
35582;BMP180;21687;48.900;9.188;2023-06-14T07:41:04;98217.00;;;22.20
35582;BMP180;21687;48.900;9.188;2023-06-14T07:43:30;98222.00;;;22.20
35582;BMP180;21687;48.900;9.188;2023-06-14T07:45:56;98221.00;;;22.80
35582;BMP180;21687;48.900;9.188;2023-06-14T07:48:23;98219.00;;;23.30
35582;BMP180;21687;48.900;9.188;2023-06-14T07:50:49;98222.00;;;23.20
35582;BMP180;21687;48.900;9.188;2023-06-14T07:53:15;98216.00;;;22.80
35582;BMP180;21687;48.900;9.188;2023-06-14T07:55:42;98229.00;;;22.70
35582;BMP180;21687;48.900;9.188;2023-06-14T07:58:09;98222.00;;;22.50
35582;BMP180;21687;48.900;9.188;2023-06-14T08:00:36;98220.00;;;22.50
35582;BMP180;21687;48.900;9.188;2023-06-14T08:03:03;98224.00;;;23.10
35582;BMP180;21687;48.900;9.188;2023-06-14T08:05:30;98215.00;;;23.20
35582;BMP180;21687;48.900;9.188;2023-06-14T08:07:56;98217.00;;;23.40
35582;BMP180;21687;48.900;9.188;2023-06-14T08:10:23;98218.00;;;23.20
35582;BMP180;21687;48.900;9.188;2023-06-14T08:12:49;98217.00;;;22.90
35582;BMP180;21687;48.900;9.188;2023-06-14T08:15:17;98225.00;;;23.70
35582;BMP180;21687;48.900;9.188;2023-06-14T08:17:44;98226.00;;;23.90
35582;BMP180;21687;48.900;9.188;2023-06-14T08:20:11;98228.00;;;24.20
35582;BMP180;21687;48.900;9.188;2023-06-14T08:22:38;98233.00;;;23.40
35582;BMP180;21687;48.900;9.188;2023-06-14T08:25:06;98217.00;;;22.70
35582;BMP180;21687;48.900;9.188;2023-06-14T08:27:32;98225.00;;;23.50
35582;BMP180;21687;48.900;9.188;2023-06-14T08:29:59;98227.00;;;23.60
35582;BMP180;21687;48.900;9.188;2023-06-14T08:32:25;98229.00;;;23.10
35582;BMP180;21687;48.900;9.188;2023-06-14T08:34:52;98231.00;;;23.20
35582;BMP180;21687;48.900;9.188;2023-06-14T08:37:18;98238.00;;;23.10
35582;BMP180;21687;48.900;9.188;2023-06-14T08:39:45;98226.00;;;23.40
35582;BMP180;21687;48.900;9.188;2023-06-14T08:42:11;98234.00;;;23.50
35582;BMP180;21687;48.900;9.188;2023-06-14T08:44:38;98230.00;;;23.00
35582;BMP180;21687;48.900;9.188;2023-06-14T08:47:07;98239.00;;;23.20
35582;BMP180;21687;48.900;9.188;2023-06-14T08:49:34;98235.00;;;23.70
35582;BMP180;21687;48.900;9.188;2023-06-14T08:52:02;98246.00;;;23.60
35582;BMP180;21687;48.900;9.188;2023-06-14T08:54:29;98246.00;;;23.40
35582;BMP180;21687;48.900;9.188;2023-06-14T08:57:04;98237.00;;;23.60
35582;BMP180;21687;48.900;9.188;2023-06-14T08:59:33;98233.00;;;23.10
35582;BMP180;21687;48.900;9.188;2023-06-14T09:02:06;98230.00;;;22.90
35582;BMP180;21687;48.900;9.188;2023-06-14T09:04:32;98235.00;;;23.60
35582;BMP180;21687;48.900;9.188;2023-06-14T09:06:59;98238.00;;;23.60
35582;BMP180;21687;48.900;9.188;2023-06-14T09:09:26;98233.00;;;24.10
35582;BMP180;21687;48.900;9.188;2023-06-14T09:11:53;98242.00;;;23.90
35582;BMP180;21687;48.900;9.188;2023-06-14T09:14:21;98237.00;;;23.90
35582;BMP180;21687;48.900;9.188;2023-06-14T09:16:47;98237.00;;;24.00
35582;BMP180;21687;48.900;9.188;2023-06-14T09:19:26;98226.00;;;23.90
35582;BMP180;21687;48.900;9.188;2023-06-14T09:21:53;98238.00;;;24.50
35582;BMP180;21687;48.900;9.188;2023-06-14T09:24:20;98235.00;;;24.60
35582;BMP180;21687;48.900;9.188;2023-06-14T09:26:51;98241.00;;;23.90
35582;BMP180;21687;48.900;9.188;2023-06-14T09:29:18;98240.00;;;23.50
35582;BMP180;21687;48.900;9.188;2023-06-14T09:31:48;98236.00;;;23.90
35582;BMP180;21687;48.900;9.188;2023-06-14T09:34:15;98239.00;;;24.50
35582;BMP180;21687;48.900;9.188;2023-06-14T09:36:43;98237.00;;;24.50
35582;BMP180;21687;48.900;9.188;2023-06-14T09:39:09;98230.00;;;24.40
35582;BMP180;21687;48.900;9.188;2023-06-14T09:41:37;98240.00;;;24.60
35582;BMP180;21687;48.900;9.188;2023-06-14T09:44:07;98239.00;;;25.10
35582;BMP180;21687;48.900;9.188;2023-06-14T09:46:35;98240.00;;;25.70
35582;BMP180;21687;48.900;9.188;2023-06-14T09:49:02;98236.00;;;25.10
35582;BMP180;21687;48.900;9.188;2023-06-14T09:51:30;98244.00;;;24.40
35582;BMP180;21687;48.900;9.188;2023-06-14T09:54:01;98243.00;;;23.20
35582;BMP180;21687;48.900;9.188;2023-06-14T09:56:29;98240.00;;;23.00
35582;BMP180;21687;48.900;9.188;2023-06-14T09:58:57;98242.00;;;23.70
35582;BMP180;21687;48.900;9.188;2023-06-14T10:01:30;98240.00;;;23.90
35582;BMP180;21687;48.900;9.188;2023-06-14T10:04:05;98241.00;;;22.90
35582;BMP180;21687;48.900;9.188;2023-06-14T10:06:35;98235.00;;;23.10
35582;BMP180;21687;48.900;9.188;2023-06-14T10:09:05;98233.00;;;23.50
35582;BMP180;21687;48.900;9.188;2023-06-14T10:11:33;98233.00;;;23.70
35582;BMP180;21687;48.900;9.188;2023-06-14T10:14:03;98232.00;;;24.30
35582;BMP180;21687;48.900;9.188;2023-06-14T10:16:39;98232.00;;;25.00
35582;BMP180;21687;48.900;9.188;2023-06-14T10:19:25;98232.00;;;25.40
35582;BMP180;21687;48.900;9.188;2023-06-14T10:22:02;98240.00;;;24.50
35582;BMP180;21687;48.900;9.188;2023-06-14T10:24:34;98232.00;;;23.50
35582;BMP180;21687;48.900;9.188;2023-06-14T10:27:07;98229.00;;;23.10
35582;BMP180;21687;48.900;9.188;2023-06-14T10:32:24;98221.00;;;24.20
35582;BMP180;21687;48.900;9.188;2023-06-14T10:35:04;98218.00;;;24.30
35582;BMP180;21687;48.900;9.188;2023-06-14T10:37:32;98231.00;;;24.20
35582;BMP180;21687;48.900;9.188;2023-06-14T10:39:58;98222.00;;;24.10
35582;BMP180;21687;48.900;9.188;2023-06-14T10:42:31;98218.00;;;24.50
35582;BMP180;21687;48.900;9.188;2023-06-14T10:44:58;98223.00;;;25.40
35582;BMP180;21687;48.900;9.188;2023-06-14T10:47:30;98221.00;;;26.00
35582;BMP180;21687;48.900;9.188;2023-06-14T10:50:03;98220.00;;;26.20
35582;BMP180;21687;48.900;9.188;2023-06-14T10:52:34;98226.00;;;26.30
35582;BMP180;21687;48.900;9.188;2023-06-14T11:00:13;98230.00;;;25.10
35582;BMP180;21687;48.900;9.188;2023-06-14T11:05:55;98225.00;;;25.50
35582;BMP180;21687;48.900;9.188;2023-06-14T11:11:23;98223.00;;;25.40
35582;BMP180;21687;48.900;9.188;2023-06-14T11:13:51;98219.00;;;25.30
35582;BMP180;21687;48.900;9.188;2023-06-14T11:16:18;98235.00;;;25.60
35582;BMP180;21687;48.900;9.188;2023-06-14T11:18:48;98225.00;;;25.20
35582;BMP180;21687;48.900;9.188;2023-06-14T11:21:17;98225.00;;;25.60
35582;BMP180;21687;48.900;9.188;2023-06-14T11:23:50;98221.00;;;25.30
35582;BMP180;21687;48.900;9.188;2023-06-14T11:26:28;98224.00;;;24.40
35582;BMP180;21687;48.900;9.188;2023-06-14T11:28:59;98223.00;;;24.30
35582;BMP180;21687;48.900;9.188;2023-06-14T11:31:27;98218.00;;;25.10
35582;BMP180;21687;48.900;9.188;2023-06-14T11:33:55;98216.00;;;25.70
35582;BMP180;21687;48.900;9.188;2023-06-14T11:36:23;98223.00;;;25.70
35582;BMP180;21687;48.900;9.188;2023-06-14T11:38:49;98219.00;;;26.00
35582;BMP180;21687;48.900;9.188;2023-06-14T11:41:16;98230.00;;;25.90
35582;BMP180;21687;48.900;9.188;2023-06-14T11:43:42;98222.00;;;25.00
35582;BMP180;21687;48.900;9.188;2023-06-14T11:46:15;98225.00;;;24.80
35582;BMP180;21687;48.900;9.188;2023-06-14T11:48:43;98232.00;;;24.10
35582;BMP180;21687;48.900;9.188;2023-06-14T11:51:09;98227.00;;;23.60
35582;BMP180;21687;48.900;9.188;2023-06-14T11:53:37;98220.00;;;23.60
35582;BMP180;21687;48.900;9.188;2023-06-14T11:56:04;98224.00;;;24.40
35582;BMP180;21687;48.900;9.188;2023-06-14T11:58:30;98215.00;;;25.20
35582;BMP180;21687;48.900;9.188;2023-06-14T12:00:57;98216.00;;;25.40
35582;BMP180;21687;48.900;9.188;2023-06-14T12:03:24;98208.00;;;25.70
35582;BMP180;21687;48.900;9.188;2023-06-14T12:06:08;98220.00;;;24.90
35582;BMP180;21687;48.900;9.188;2023-06-14T12:08:38;98220.00;;;24.80
35582;BMP180;21687;48.900;9.188;2023-06-14T12:11:13;98225.00;;;24.90
35582;BMP180;21687;48.900;9.188;2023-06-14T12:13:43;98219.00;;;24.90
35582;BMP180;21687;48.900;9.188;2023-06-14T12:16:10;98225.00;;;24.40
35582;BMP180;21687;48.900;9.188;2023-06-14T12:18:39;98218.00;;;23.70
35582;BMP180;21687;48.900;9.188;2023-06-14T12:21:06;98227.00;;;23.40
35582;BMP180;21687;48.900;9.188;2023-06-14T12:26:06;98227.00;;;23.20
35582;BMP180;21687;48.900;9.188;2023-06-14T12:28:33;98219.00;;;23.20
35582;BMP180;21687;48.900;9.188;2023-06-14T12:30:59;98230.00;;;22.90
35582;BMP180;21687;48.900;9.188;2023-06-14T12:33:25;98215.00;;;22.80
35582;BMP180;21687;48.900;9.188;2023-06-14T12:35:55;98217.00;;;23.50
35582;BMP180;21687;48.900;9.188;2023-06-14T12:38:23;98207.00;;;24.00
35582;BMP180;21687;48.900;9.188;2023-06-14T12:40:50;98223.00;;;24.40
35582;BMP180;21687;48.900;9.188;2023-06-14T12:43:16;98220.00;;;24.40
35582;BMP180;21687;48.900;9.188;2023-06-14T12:45:42;98201.00;;;24.20
35582;BMP180;21687;48.900;9.188;2023-06-14T12:48:09;98219.00;;;24.30
35582;BMP180;21687;48.900;9.188;2023-06-14T12:50:35;98211.00;;;24.10
35582;BMP180;21687;48.900;9.188;2023-06-14T12:53:01;98214.00;;;24.30
35582;BMP180;21687;48.900;9.188;2023-06-14T12:55:28;98219.00;;;24.50
35582;BMP180;21687;48.900;9.188;2023-06-14T12:57:54;98216.00;;;24.30
35582;BMP180;21687;48.900;9.188;2023-06-14T13:00:21;98202.00;;;24.10
35582;BMP180;21687;48.900;9.188;2023-06-14T13:02:48;98220.00;;;24.50
35582;BMP180;21687;48.900;9.188;2023-06-14T13:05:14;98221.00;;;24.60
35582;BMP180;21687;48.900;9.188;2023-06-14T13:07:40;98217.00;;;24.40
35582;BMP180;21687;48.900;9.188;2023-06-14T13:10:07;98219.00;;;24.30
35582;BMP180;21687;48.900;9.188;2023-06-14T13:12:33;98223.00;;;24.40
35582;BMP180;21687;48.900;9.188;2023-06-14T13:15:00;98217.00;;;24.30
35582;BMP180;21687;48.900;9.188;2023-06-14T13:17:26;98218.00;;;24.30
35582;BMP180;21687;48.900;9.188;2023-06-14T13:19:53;98212.00;;;24.20
35582;BMP180;21687;48.900;9.188;2023-06-14T13:22:19;98217.00;;;24.40
35582;BMP180;21687;48.900;9.188;2023-06-14T13:24:46;98221.00;;;24.80
35582;BMP180;21687;48.900;9.188;2023-06-14T13:27:12;98211.00;;;25.30
35582;BMP180;21687;48.900;9.188;2023-06-14T13:29:40;98210.00;;;25.50
35582;BMP180;21687;48.900;9.188;2023-06-14T13:32:07;98212.00;;;25.50
35582;BMP180;21687;48.900;9.188;2023-06-14T13:34:33;98228.00;;;24.70
35582;BMP180;21687;48.900;9.188;2023-06-14T13:36:59;98219.00;;;24.60
35582;BMP180;21687;48.900;9.188;2023-06-14T13:39:26;98210.00;;;24.50
35582;BMP180;21687;48.900;9.188;2023-06-14T13:41:52;98220.00;;;24.60
35582;BMP180;21687;48.900;9.188;2023-06-14T13:44:19;98217.00;;;24.70
35582;BMP180;21687;48.900;9.188;2023-06-14T13:46:47;98210.00;;;25.10
35582;BMP180;21687;48.900;9.188;2023-06-14T13:49:13;98216.00;;;25.00
35582;BMP180;21687;48.900;9.188;2023-06-14T13:51:40;98210.00;;;25.30
35582;BMP180;21687;48.900;9.188;2023-06-14T13:54:06;98200.00;;;25.10
35582;BMP180;21687;48.900;9.188;2023-06-14T13:56:32;98200.00;;;25.30
35582;BMP180;21687;48.900;9.188;2023-06-14T13:58:59;98210.00;;;25.60
35582;BMP180;21687;48.900;9.188;2023-06-14T14:01:26;98200.00;;;25.00
35582;BMP180;21687;48.900;9.188;2023-06-14T14:03:55;98204.00;;;25.40
35582;BMP180;21687;48.900;9.188;2023-06-14T14:06:21;98195.00;;;25.40
35582;BMP180;21687;48.900;9.188;2023-06-14T14:08:47;98193.00;;;25.30
35582;BMP180;21687;48.900;9.188;2023-06-14T14:11:14;98201.00;;;24.80
35582;BMP180;21687;48.900;9.188;2023-06-14T14:13:42;98209.00;;;24.60
35582;BMP180;21687;48.900;9.188;2023-06-14T14:16:08;98206.00;;;24.60
35582;BMP180;21687;48.900;9.188;2023-06-14T14:18:36;98199.00;;;24.90
35582;BMP180;21687;48.900;9.188;2023-06-14T14:21:03;98197.00;;;25.40
35582;BMP180;21687;48.900;9.188;2023-06-14T14:23:30;98189.00;;;25.50
35582;BMP180;21687;48.900;9.188;2023-06-14T14:25:56;98196.00;;;25.60
35582;BMP180;21687;48.900;9.188;2023-06-14T14:28:23;98198.00;;;25.10
35582;BMP180;21687;48.900;9.188;2023-06-14T14:30:49;98204.00;;;25.40
35582;BMP180;21687;48.900;9.188;2023-06-14T14:33:16;98194.00;;;25.70
35582;BMP180;21687;48.900;9.188;2023-06-14T14:35:46;98206.00;;;25.10